Time;durP1;ratioP1;P1;durP2;ratioP2;P2;SDS_P1;SDS_P2;PMS_P1;PMS_P2;Temp;Humidity;BMP_temperature;BMP_pressure;BME280_temperature;BME280_humidity;BME280_pressure;Samples;Min_cycle;Max_cycle;Signal;HPM_P1;HPM_P2
2022/09/07 00:01:04;;;;;;;4.43;4.13;;;;;;;14.33;100.00;115553.41;5094503;28;20188;-60
2022/09/07 00:03:33;;;;;;;4.90;4.50;;;;;;;14.15;100.00;95296.41;5093819;28;20214;-61
2022/09/07 00:06:04;;;;;;;4.60;4.30;;;;;;;14.12;100.00;94961.00;5094472;28;20689;-61
2022/09/07 00:08:31;;;;;;;5.13;4.83;;;;;;;13.68;100.00;87301.63;5094381;28;20184;-60
2022/09/07 00:11:00;;;;;;;4.73;4.10;;;;;;;13.98;100.00;80099.31;5094059;28;20194;-62
2022/09/07 00:13:30;;;;;;;6.43;4.33;;;;;;;14.09;100.00;82748.81;5094084;28;20194;-61
2022/09/07 00:15:57;;;;;;;4.30;4.10;;;;;;;14.11;100.00;84398.09;5094095;28;20206;-61
2022/09/07 00:18:24;;;;;;;4.87;4.50;;;;;;;13.98;100.00;87346.34;5094331;28;20188;-60
2022/09/07 00:20:59;;;;;;;4.90;4.57;;;;;;;14.20;100.00;87708.25;5093862;28;20271;-61
2022/09/07 00:23:28;;;;;;;4.07;3.83;;;;;;;14.30;100.00;89702.59;5093972;28;20191;-60
2022/09/07 00:25:59;;;;;;;6.10;3.97;;;;;;;14.35;100.00;94336.16;5093937;28;20268;-62
2022/09/07 00:28:26;;;;;;;4.40;4.00;;;;;;;14.10;100.00;84067.16;5093713;28;20227;-60
2022/09/07 00:30:53;;;;;;;4.27;3.97;;;;;;;13.75;100.00;75466.88;5093678;28;20315;-61
2022/09/07 00:33:20;;;;;;;4.77;4.10;;;;;;;13.85;100.00;75151.31;5093665;28;20194;-61
2022/09/07 00:35:47;;;;;;;4.50;4.20;;;;;;;13.79;100.00;74814.50;5093781;28;20184;-61
2022/09/07 00:38:15;;;;;;;4.53;4.20;;;;;;;13.75;100.00;73496.63;5092890;28;20274;-61
2022/09/07 00:40:42;;;;;;;6.00;4.07;;;;;;;13.76;100.00;73497.91;5093930;28;20242;-61
2022/09/07 00:43:15;;;;;;;6.43;4.30;;;;;;;13.94;100.00;74833.72;5093718;28;20268;-60
2022/09/07 00:45:42;;;;;;;4.50;4.30;;;;;;;13.92;100.00;75817.44;5093641;28;20185;-61
2022/09/07 00:48:15;;;;;;;5.07;4.50;;;;;;;13.59;100.00;64299.44;5093493;28;20184;-61
2022/09/07 00:50:46;;;;;;;5.93;4.57;;;;;;;13.81;100.00;58434.69;5093511;28;20200;-61
2022/09/07 00:53:19;;;;;;;7.20;5.40;;;;;;;13.84;100.00;58110.84;5093324;28;20203;-61
2022/09/07 00:55:47;;;;;;;6.33;5.00;;;;;;;13.66;100.00;60708.28;5093655;28;20198;-60
2022/09/07 00:58:15;;;;;;;5.23;4.93;;;;;;;13.90;100.00;61714.97;5093166;28;20227;-61
2022/09/07 01:00:44;;;;;;;4.50;4.20;;;;;;;13.85;100.00;61382.47;5093591;28;20703;-60
2022/09/07 01:03:13;;;;;;;4.20;3.90;;;;;;;13.87;100.00;60403.22;5093304;28;20658;-60
2022/09/07 01:05:45;;;;;;;4.70;4.30;;;;;;;13.87;100.00;59748.59;5093008;28;20206;-63
2022/09/07 01:08:14;;;;;;;3.93;3.73;;;;;;;13.86;100.00;62037.94;5092926;28;20191;-61
2022/09/07 01:10:42;;;;;;;4.03;3.83;;;;;;;13.91;100.00;59426.19;5092799;28;20203;-61
2022/09/07 01:13:09;;;;;;;3.90;3.60;;;;;;;13.88;100.00;61385.66;5092897;28;20192;-61
2022/09/07 01:15:44;;;;;;;4.40;4.07;;;;;;;13.84;100.00;62035.25;5092760;28;20187;-60
2022/09/07 01:18:21;;;;;;;4.37;3.90;;;;;;;13.71;100.00;57444.78;5092964;28;20223;-61
2022/09/07 01:21:06;;;;;;;4.23;3.93;;;;;;;13.60;100.00;53516.72;5092961;28;20200;-61
2022/09/07 01:24:21;;;;;;;5.73;3.97;;;;;;;13.65;100.00;51237.53;5092983;28;20695;-61
2022/09/07 01:27:12;;;;;;;4.73;4.17;;;;;;;13.73;100.00;45379.47;5092667;28;20222;-62
2022/09/07 01:29:51;;;;;;;6.70;4.17;;;;;;;13.79;100.00;45383.84;5092408;28;20245;-61
2022/09/07 01:32:36;;;;;;;5.77;4.13;;;;;;;13.80;100.00;45059.03;5092523;28;20215;-61
2022/09/07 01:35:10;;;;;;;4.37;4.17;;;;;;;13.87;100.00;45064.56;5092767;28;20198;-61
2022/09/07 01:37:43;;;;;;;4.57;4.27;;;;;;;14.05;100.00;44101.84;5093156;28;20188;-61
2022/09/07 01:40:15;;;;;;;4.67;4.30;;;;;;;14.12;100.00;47365.69;5092476;28;20180;-60
2022/09/07 01:42:50;;;;;;;4.37;4.17;;;;;;;13.75;100.00;53203.41;5092240;28;20282;-61
2022/09/07 01:45:23;;;;;;;4.53;4.33;;;;;;;14.01;100.00;53227.41;5092925;28;20210;-61
2022/09/07 01:47:55;;;;;;;4.43;4.07;;;;;;;14.03;100.00;52250.44;5092282;28;20275;-61
2022/09/07 01:50:28;;;;;;;3.90;3.60;;;;;;;14.16;100.00;49325.03;5092129;28;20212;-60
2022/09/07 01:53:00;;;;;;;4.70;4.30;;;;;;;14.11;100.00;54543.47;5092473;28;20206;-61
2022/09/07 01:55:33;;;;;;;3.73;3.40;;;;;;;14.03;100.00;55515.38;5092465;28;20234;-61
2022/09/07 01:58:09;;;;;;;3.83;3.63;;;;;;;13.95;100.00;55834.84;5092393;28;20631;-61
2022/09/07 02:00:41;;;;;;;3.90;3.70;;;;;;;14.15;100.00;55853.72;5092014;28;20188;-61
2022/09/07 02:03:14;;;;;;;4.57;4.17;;;;;;;13.96;100.00;56815.53;5091957;28;20180;-61
2022/09/07 02:05:48;;;;;;;7.73;4.30;;;;;;;13.61;100.00;56128.47;5092171;28;20190;-62
2022/09/07 02:08:19;;;;;;;4.83;4.43;;;;;;;13.78;100.00;51901.50;5092011;28;20181;-61
2022/09/07 02:10:51;;;;;;;6.57;5.40;;;;;;;13.65;100.00;49933.88;5091834;28;20204;-61
2022/09/07 02:13:23;;;;;;;5.93;4.77;;;;;;;13.85;100.00;48972.78;5092221;28;20564;-61
2022/09/07 02:15:55;;;;;;;5.90;4.67;;;;;;;13.49;100.00;43083.09;5091584;28;20223;-59
2022/09/07 02:18:25;;;;;;;5.47;5.07;;;;;;;13.41;100.00;39177.25;5092055;28;20188;-60
2022/09/07 02:20:57;;;;;;;7.47;5.73;;;;;;;13.53;100.00;35289.53;5092221;28;20188;-60
2022/09/07 02:23:30;;;;;;;6.50;5.93;;;;;;;13.57;100.00;35292.06;5091980;28;20583;-61
2022/09/07 02:26:02;;;;;;;8.43;6.37;;;;;;;13.39;100.00;33659.41;5091256;28;20282;-61
2022/09/07 02:28:33;;;;;;;8.10;7.40;;;;;;;13.50;100.00;29776.56;5091659;28;20188;-60
2022/09/07 02:31:01;;;;;;;9.17;7.93;;;;;;;13.35;100.00;29120.84;5091530;28;20272;-61
2022/09/07 02:33:29;;;;;;;9.37;7.10;;;;;;;13.06;100.00;22962.09;5091598;28;20214;-60
2022/09/07 02:35:57;;;;;;;7.83;6.93;;;;;;;13.32;100.00;22003.63;5091928;28;20562;-61
2022/09/07 02:38:24;;;;;;;10.27;9.37;;;;;;;13.07;100.00;21670.78;5091856;28;20562;-62
2022/09/07 02:40:52;;;;;;;11.50;8.50;;;;;;;13.44;100.00;21039.47;5091881;28;20271;-61
2022/09/07 02:43:21;;;;;;;8.57;7.80;;;;;;;13.52;100.00;21688.69;5091403;28;20188;-60
2022/09/07 02:46:15;;;;;;;8.83;8.10;;;;;;;13.60;100.00;23955.31;5091786;28;20271;-61
2022/09/07 02:48:51;;;;;;;12.77;8.70;;;;;;;13.53;100.00;28482.66;5091467;28;20191;-60
2022/09/07 02:51:27;;;;;;;15.33;9.40;;;;;;;13.31;100.00;28471.25;5091258;28;20246;-60
2022/09/07 02:54:22;;;;;;;10.87;8.57;;;;;;;13.43;100.00;26535.16;5091700;28;20184;-60
2022/09/07 02:56:58;;;;;;;9.67;7.60;;;;;;;13.46;100.00;26536.63;5087302;28;20206;-60
2022/09/07 02:59:39;;;;;;;7.17;6.77;;;;;;;13.51;100.00;27833.78;5091693;28;20557;-61
2022/09/07 03:02:16;;;;;;;8.43;7.43;;;;;;;13.38;100.00;31389.56;5091376;28;20279;-61
2022/09/07 03:04:50;;;;;;;7.97;7.13;;;;;;;13.60;100.00;32050.34;5091283;28;20223;-61
2022/09/07 03:07:22;;;;;;;9.33;8.40;;;;;;;13.60;100.00;32050.34;5091265;28;20274;-61
2022/09/07 03:09:55;;;;;;;14.33;8.77;;;;;;;13.53;100.00;30749.91;5091238;28;20204;-61
2022/09/07 03:12:22;;;;;;;14.73;8.40;;;;;;;13.49;100.00;29452.13;5091184;28;20188;-60
2022/09/07 03:14:49;;;;;;;9.20;7.30;;;;;;;13.34;100.00;27501.53;5091161;28;20192;-61
2022/09/07 03:17:18;;;;;;;9.73;8.83;;;;;;;13.37;100.00;27503.28;5090990;28;20323;-61
2022/09/07 03:19:45;;;;;;;9.50;8.90;;;;;;;13.46;100.00;27507.78;5091165;28;20192;-61
2022/09/07 03:22:11;;;;;;;12.37;9.87;;;;;;;13.45;100.00;26536.13;5091531;28;20566;-60
2022/09/07 03:24:38;;;;;;;10.33;9.50;;;;;;;13.44;100.00;26212.09;5091244;28;20723;-62
2022/09/07 03:27:05;;;;;;;9.83;9.00;;;;;;;13.47;100.00;28479.28;5091362;28;20187;-60
2022/09/07 03:29:32;;;;;;;9.23;8.37;;;;;;;13.33;100.00;30415.16;5090881;28;20229;-61
2022/09/07 03:31:59;;;;;;;8.87;7.97;;;;;;;13.41;100.00;30743.25;5091048;28;20192;-60
2022/09/07 03:34:27;;;;;;;10.13;7.87;;;;;;;13.37;100.00;31389.28;5091276;28;20191;-60
2022/09/07 03:36:54;;;;;;;9.53;8.13;;;;;;;13.33;100.00;30414.88;5091562;28;20270;-61
2022/09/07 03:39:22;;;;;;;9.10;7.77;;;;;;;13.17;100.00;27493.50;5094932;28;20279;-61
2022/09/07 03:41:50;;;;;;;8.07;7.67;;;;;;;13.23;100.00;25878.81;5094780;28;20176;-61
2022/09/07 03:44:17;;;;;;;9.23;8.33;;;;;;;13.39;100.00;27504.28;5094713;28;20279;-60
2022/09/07 03:46:44;;;;;;;8.90;8.40;;;;;;;13.48;100.00;26537.59;5094942;28;20675;-61
2022/09/07 03:49:11;;;;;;;9.63;8.77;;;;;;;13.55;100.00;25570.44;5094957;28;20645;-60
2022/09/07 03:51:39;;;;;;;7.97;7.47;;;;;;;13.52;100.00;27187.09;5094761;28;20528;-60
2022/09/07 03:54:07;;;;;;;8.03;7.33;;;;;;;13.60;100.00;27514.56;5094711;28;20650;-61
2022/09/07 03:56:34;;;;;;;12.33;8.93;;;;;;;13.75;100.00;27198.03;5094397;28;20191;-62
2022/09/07 03:59:00;;;;;;;8.77;7.90;;;;;;;13.86;100.00;27851.56;5094620;28;20184;-61
2022/09/07 04:01:28;;;;;;;8.77;8.00;;;;;;;13.99;100.00;28830.03;5094298;28;20184;-61
2022/09/07 04:04:01;;;;;;;8.33;7.53;;;;;;;14.01;100.00;34021.09;5094528;28;20543;-61
2022/09/07 04:06:28;;;;;;;9.80;8.87;;;;;;;14.05;100.00;34997.56;5094448;28;20187;-61
2022/09/07 04:08:57;;;;;;;22.03;15.00;;;;;;;14.10;100.00;35000.38;5094284;28;20267;-61
2022/09/07 04:11:24;;;;;;;12.20;9.63;;;;;;;14.26;100.00;37609.72;5094371;28;20239;-61
2022/09/07 04:13:51;;;;;;;38.43;27.30;;;;;;;14.44;100.00;36646.69;5094293;28;20198;-61
2022/09/07 04:16:19;;;;;;;38.43;26.57;;;;;;;14.58;100.00;43165.38;5094296;28;20240;-60
2022/09/07 04:18:48;;;;;;;42.30;27.17;;;;;;;14.89;100.00;50040.63;5093930;28;20188;-61
2022/09/07 04:21:15;;;;;;;40.17;26.90;;;;;;;15.15;100.00;59223.94;5094072;28;20215;-62
2022/09/07 04:23:42;;;;;;;29.57;22.83;;;;;;;15.38;100.00;71068.09;5094193;28;20607;-62
2022/09/07 04:26:16;;;;;;;32.90;22.37;;;;;;;15.57;100.00;99833.94;5094247;28;20566;-61
2022/09/07 04:28:44;;;;;;;30.53;20.93;;;;;;;15.70;100.00;117487.47;5093787;28;20192;-61
2022/09/07 04:31:12;;;;;;;29.97;20.80;;;;;;;15.77;100.00;130198.00;5094338;28;20204;-61
2022/09/07 04:33:38;;;;;;;27.70;18.73;;;;;;;16.50;100.00;147594.75;5093838;28;20299;-61
2022/09/07 04:36:06;;;;;;;26.87;17.93;;;;;;;17.08;100.00;150329.53;5093731;28;20270;-61
2022/09/07 04:38:33;;;;;;;21.63;17.43;;;;;;;17.57;100.00;150454.03;5093910;28;20550;-61
2022/09/07 04:41:01;;;;;;;31.70;17.83;;;;;;;18.44;100.00;150671.47;5093828;28;20623;-61
2022/09/07 04:43:29;;;;;;;34.43;17.87;;;;;;;19.11;100.00;150841.97;5093623;28;20190;-61
2022/09/07 04:45:56;;;;;;;26.60;16.57;;;;;;;19.59;100.00;150962.94;5093387;28;20186;-61
2022/09/07 04:48:23;;;;;;;23.83;15.03;;;;;;;19.91;100.00;151041.81;5092969;28;20184;-62
2022/09/07 04:50:51;;;;;;;31.57;17.13;;;;;;;20.26;100.00;151129.66;5093544;28;20662;-62
2022/09/07 04:53:18;;;;;;;36.13;17.53;;;;;;;20.33;100.00;151148.81;5093325;28;20220;-61
2022/09/07 04:55:45;;;;;;;40.97;19.77;;;;;;;20.64;100.00;151226.50;5093335;28;20184;-61
2022/09/07 04:58:12;;;;;;;34.30;19.57;;;;;;;21.06;100.00;151332.22;5093326;28;20188;-62
2022/09/07 05:00:41;;;;;;;37.33;22.80;;;;;;;21.58;100.00;151462.25;5093076;28;20188;-61
2022/09/07 05:03:07;;;;;;;54.67;27.63;;;;;;;22.22;100.00;151625.50;5093419;28;20188;-61
2022/09/07 05:05:37;;;;;;;49.30;27.77;;;;;;;22.53;100.00;151703.25;5093088;28;20282;-62
2022/09/07 05:08:04;;;;;;;38.95;24.65;;;;;;;22.79;100.00;151767.09;5093341;28;20704;-61
2022/09/07 05:10:31;;;;;;;30.65;20.88;;;;;;;23.08;100.00;151842.38;5092930;28;20204;-61
2022/09/07 05:12:58;;;;;;;20.70;18.13;;;;;;;23.03;100.00;151829.59;5092895;28;20271;-61
2022/09/07 05:15:25;;;;;;;26.65;20.15;;;;;;;22.97;100.00;151813.00;5093124;28;20184;-61
2022/09/07 05:17:53;;;;;;;19.67;17.43;;;;;;;22.58;100.00;151714.72;5092675;28;20654;-61
2022/09/07 05:20:20;;;;;;;18.77;17.00;;;;;;;22.39;100.00;151666.28;5092779;28;20275;-62
2022/09/07 05:22:50;;;;;;;27.50;15.20;;;;;;;22.63;100.00;151728.78;5092980;28;20279;-61
2022/09/07 05:25:17;;;;;;;24.33;14.15;;;;;;;22.72;100.00;151751.78;5092875;28;20195;-62
2022/09/07 05:27:43;;;;;;;31.65;13.85;;;;;;;22.18;100.00;151615.28;5092866;28;20266;-62
2022/09/07 05:30:12;;;;;;;21.52;13.52;;;;;;;22.94;100.00;151806.63;5092434;28;20184;-62
2022/09/07 05:32:39;;;;;;;14.18;12.90;;;;;;;22.88;100.00;151791.31;5092482;28;20207;-62
2022/09/07 05:35:08;;;;;;;18.50;13.02;;;;;;;22.73;100.00;151753.06;5092421;28;20220;-61
2022/09/07 05:37:35;;;;;;;18.65;12.52;;;;;;;22.83;100.00;151777.31;5092720;28;20646;-61
2022/09/07 05:40:03;;;;;;;14.35;12.73;;;;;;;23.52;100.00;151952.13;5091352;28;20535;-61
2022/09/07 05:42:35;;;;;;;13.40;12.18;;;;;;;24.75;100.00;152263.69;5092334;28;20211;-61
2022/09/07 05:45:02;;;;;;;21.73;16.20;;;;;;;25.54;100.00;152461.81;5092460;28;20188;-60
2022/09/07 05:47:29;;;;;;;36.40;20.75;;;;;;;26.64;95.12;152741.84;5092551;28;20220;-61
2022/09/07 05:49:56;;;;;;;39.90;23.52;;;;;;;27.34;90.76;152917.06;5091225;28;20196;-64
2022/09/07 05:52:24;;;;;;;36.97;25.60;;;;;;;27.04;90.09;152841.59;5091875;28;20220;-63
2022/09/07 05:54:51;;;;;;;38.85;30.80;;;;;;;26.41;94.58;152681.72;5092124;28;20535;-64
2022/09/07 05:57:18;;;;;;;58.50;34.20;;;;;;;25.93;95.88;152561.47;5091787;28;20188;-64
2022/09/07 05:59:45;;;;;;;57.40;35.05;;;;;;;26.57;94.25;152723.91;5091934;28;20222;-64
2022/09/07 06:02:14;;;;;;;53.17;33.83;;;;;;;27.80;83.84;153034.84;5091923;28;20184;-64
2022/09/07 06:04:41;;;;;;;49.47;34.92;;;;;;;28.48;79.82;153207.69;5092233;28;20183;-61
2022/09/07 06:07:12;;;;;;;49.17;34.45;;;;;;;28.53;78.88;153219.22;5091622;28;20184;-61
2022/09/07 06:09:40;;;;;;;45.60;30.23;;;;;;;28.66;78.42;153251.22;5091742;28;20693;-61
2022/09/07 06:12:07;;;;;;;47.20;32.45;;;;;;;27.90;80.51;153059.16;5091555;28;20297;-61
2022/09/07 06:14:34;;;;;;;40.15;28.92;;;;;;;26.85;87.60;152793.03;5092008;28;20223;-61
2022/09/07 06:17:01;;;;;;;45.20;31.80;;;;;;;26.13;95.84;152612.66;5091700;28;20242;-60
2022/09/07 06:19:29;;;;;;;41.28;30.33;;;;;;;25.87;97.37;152546.16;5092061;28;20682;-60
2022/09/07 06:21:56;;;;;;;51.47;30.52;;;;;;;25.53;100.00;152460.53;5092210;28;20184;-62
2022/09/07 06:24:23;;;;;;;43.15;27.27;;;;;;;25.54;100.00;152463.09;5091795;28;20278;-62
2022/09/07 06:26:51;;;;;;;43.90;25.90;;;;;;;25.55;100.00;152465.63;5091848;28;20206;-61
2022/09/07 06:29:18;;;;;;;36.63;23.65;;;;;;;25.69;100.00;152501.44;5092205;28;20190;-62
2022/09/07 06:31:45;;;;;;;42.10;22.63;;;;;;;25.76;100.00;152518.03;5091911;28;20211;-61
2022/09/07 06:34:12;;;;;;;32.72;21.10;;;;;;;25.65;100.00;152491.22;5091864;28;20558;-61
2022/09/07 06:36:39;;;;;;;39.60;20.23;;;;;;;25.78;99.22;152524.44;5091914;28;20192;-61
2022/09/07 06:39:06;;;;;;;22.48;17.23;;;;;;;26.30;96.61;152654.88;5091501;28;20188;-61
2022/09/07 06:41:36;;;;;;;19.48;15.77;;;;;;;26.86;93.44;152796.88;5091552;28;20194;-61
2022/09/07 06:44:04;;;;;;;14.05;12.98;;;;;;;27.43;88.29;152941.41;5091864;28;20263;-61
2022/09/07 06:46:31;;;;;;;14.70;12.40;;;;;;;28.61;82.45;153241.00;5090623;28;20202;-62
2022/09/07 06:48:58;;;;;;;12.93;11.07;;;;;;;29.47;77.57;153458.81;5091413;28;20188;-62
2022/09/07 06:51:27;;;;;;;22.23;11.35;;;;;;;30.18;73.56;153638.25;5091698;28;20674;-62
2022/09/07 06:53:56;;;;;;;20.17;11.48;;;;;;;30.72;69.03;153774.19;5091308;28;20195;-61
2022/09/07 06:56:26;;;;;;;15.68;10.15;;;;;;;31.21;67.62;153899.88;5091793;28;20275;-62
2022/09/07 06:58:54;;;;;;;7.68;5.78;;;;;;;29.78;79.77;153536.97;5091695;28;20249;-62
2022/09/07 07:01:32;;;;;;;13.70;8.32;;;;;;;29.56;81.54;153479.31;5091538;28;20204;-63
2022/09/07 07:03:59;;;;;;;6.78;6.28;;;;;;;30.03;79.27;153599.81;5091147;28;20207;-62
2022/09/07 07:06:33;;;;;;;8.27;4.68;;;;;;;29.98;73.77;153587.00;5091369;28;20284;-62
2022/09/07 07:09:02;;;;;;;8.23;4.53;;;;;;;29.70;78.00;153515.19;5090496;28;20210;-61
2022/09/07 07:11:30;;;;;;;16.58;6.22;;;;;;;29.91;78.76;153569.06;5092986;28;20638;-62
2022/09/07 07:13:59;;;;;;;6.18;5.47;;;;;;;29.71;78.08;153519.00;5096319;28;20188;-63
2022/09/07 07:16:30;;;;;;;8.68;6.18;;;;;;;28.15;88.49;153123.22;5096463;28;20227;-66
2022/09/07 07:19:01;;;;;;;4.38;4.15;;;;;;;27.22;95.96;152888.97;5098146;28;20203;-61
2022/09/07 07:21:30;;;;;;;9.85;4.05;;;;;;;27.56;96.52;152974.72;5097201;28;20219;-62
2022/09/07 07:23:57;;;;;;;6.10;5.47;;;;;;;27.28;98.96;152904.28;5095908;28;20205;-63
2022/09/07 07:26:26;;;;;;;8.23;4.57;;;;;;;27.10;100.00;152856.97;5096609;28;20188;-59
2022/09/07 07:28:55;;;;;;;4.32;4.03;;;;;;;26.23;100.00;152638.22;5094890;28;20192;-60
2022/09/07 07:31:27;;;;;;;4.50;3.95;;;;;;;26.62;100.00;152735.41;5092701;28;20208;-61
2022/09/07 07:33:56;;;;;;;4.57;4.38;;;;;;;26.44;99.83;152690.66;5095854;28;20206;-60
2022/09/07 07:36:24;;;;;;;5.72;4.50;;;;;;;26.43;98.03;152686.84;5096568;28;20200;-60
2022/09/07 07:38:53;;;;;;;4.55;4.35;;;;;;;26.66;99.30;152745.63;5095217;28;20204;-63
2022/09/07 07:41:21;;;;;;;4.45;3.80;;;;;;;26.09;100.00;152601.13;5094618;28;20274;-61
2022/09/07 07:43:55;;;;;;;3.80;3.60;;;;;;;26.10;100.00;152604.94;5094727;28;20186;-64
2022/09/07 07:46:23;;;;;;;3.80;3.60;;;;;;;26.28;100.00;152649.75;5094857;28;20207;-61
2022/09/07 07:48:50;;;;;;;3.72;3.63;;;;;;;26.46;98.87;152694.50;5094975;28;20188;-64
2022/09/07 07:51:19;;;;;;;3.67;3.53;;;;;;;26.25;97.28;152642.09;5094642;28;20212;-62
2022/09/07 07:53:46;;;;;;;3.25;2.92;;;;;;;25.85;100.00;152541.03;5094781;28;20646;-60
2022/09/07 07:56:13;;;;;;;3.80;3.70;;;;;;;25.41;100.00;152429.84;5094459;28;20267;-61
2022/09/07 07:58:47;;;;;;;3.92;3.70;;;;;;;25.61;100.00;152480.97;5094438;28;20180;-60
2022/09/07 08:01:16;;;;;;;3.67;3.50;;;;;;;25.45;100.00;152440.06;5094331;28;20275;-60
2022/09/07 08:03:45;;;;;;;4.10;3.88;;;;;;;25.69;100.00;152501.44;5094615;28;20614;-62
2022/09/07 08:06:14;;;;;;;3.90;3.60;;;;;;;24.98;100.00;152322.50;5094443;28;20227;-61
2022/09/07 08:08:43;;;;;;;5.13;3.50;;;;;;;24.88;100.00;152296.94;5094324;28;20203;-62
2022/09/07 08:11:12;;;;;;;4.05;3.85;;;;;;;25.20;100.00;152376.16;5094057;28;20241;-61
2022/09/07 08:13:40;;;;;;;3.67;3.47;;;;;;;25.20;100.00;152377.44;5094537;28;20184;-61
2022/09/07 08:16:08;;;;;;;3.50;3.40;;;;;;;25.28;100.00;152396.59;5094502;28;20188;-61
2022/09/07 08:18:37;;;;;;;4.07;3.78;;;;;;;25.40;100.00;152428.56;5094315;28;20716;-60
2022/09/07 08:21:06;;;;;;;3.92;3.83;;;;;;;25.28;100.00;152397.91;5092844;28;20190;-61
2022/09/07 08:23:34;;;;;;;5.47;3.97;;;;;;;25.19;100.00;152374.88;5093535;28;20615;-61
2022/09/07 08:26:03;;;;;;;4.43;4.05;;;;;;;25.16;100.00;152367.22;5094176;28;20192;-61
2022/09/07 08:28:32;;;;;;;4.07;3.88;;;;;;;25.27;100.00;152395.31;5093873;28;20200;-61
2022/09/07 08:31:03;;;;;;;4.30;4.00;;;;;;;25.38;100.00;152422.13;5094081;28;20187;-62
2022/09/07 08:33:30;;;;;;;4.03;3.72;;;;;;;25.20;100.00;152376.16;5093565;28;20208;-62
2022/09/07 08:35:59;;;;;;;3.97;3.63;;;;;;;25.06;100.00;152341.66;5094051;28;20575;-62
2022/09/07 08:38:26;;;;;;;7.35;4.13;;;;;;;25.15;100.00;152363.38;5092650;28;20543;-61
2022/09/07 08:40:54;;;;;;;4.30;4.03;;;;;;;24.94;100.00;152312.28;5093907;28;20655;-62
2022/09/07 08:43:35;;;;;;;4.60;3.90;;;;;;;25.01;100.00;152330.16;5093783;28;20188;-60
2022/09/07 08:46:12;;;;;;;4.00;3.90;;;;;;;25.26;100.00;152391.47;5093063;28;20202;-62
2022/09/07 08:48:40;;;;;;;4.40;4.03;;;;;;;25.35;100.00;152415.75;5092482;28;20195;-62
2022/09/07 08:51:13;;;;;;;4.65;3.72;;;;;;;25.30;100.00;152401.69;5093630;28;20606;-62
2022/09/07 08:53:45;;;;;;;3.70;3.58;;;;;;;25.55;100.00;152465.63;5093244;28;20245;-61
2022/09/07 08:56:16;;;;;;;3.85;3.72;;;;;;;25.30;100.00;152401.69;5093389;28;20562;-61
2022/09/07 08:58:47;;;;;;;4.50;4.15;;;;;;;24.93;100.00;152308.44;5093687;28;20650;-61
2022/09/07 09:01:16;;;;;;;4.07;3.88;;;;;;;24.96;100.00;152317.38;5093342;28;20187;-61
2022/09/07 09:03:43;;;;;;;4.32;4.00;;;;;;;24.84;100.00;152286.69;5093371;28;20188;-61
2022/09/07 09:06:19;;;;;;;5.68;3.97;;;;;;;24.78;100.00;152271.34;5092040;28;20180;-61
2022/09/07 09:09:06;;;;;;;4.03;3.83;;;;;;;24.68;100.00;152245.81;5093138;28;20184;-62
2022/09/07 09:11:43;;;;;;;4.18;3.97;;;;;;;25.00;100.00;152327.59;5092837;28;20184;-61
2022/09/07 09:14:22;;;;;;;4.25;3.95;;;;;;;25.47;100.00;152445.13;5093198;28;20176;-62
2022/09/07 09:16:53;;;;;;;4.03;3.83;;;;;;;25.65;100.00;152489.91;5092804;28;20605;-62
2022/09/07 09:19:40;;;;;;;4.20;3.58;;;;;;;24.85;100.00;152287.97;5092469;28;20183;-62
2022/09/07 09:22:15;;;;;;;3.83;3.65;;;;;;;25.18;100.00;152371.03;5091923;28;20191;-61
2022/09/07 09:24:46;;;;;;;3.15;3.05;;;;;;;25.40;100.00;152428.56;5092691;28;20179;-61
2022/09/07 09:27:14;;;;;;;4.20;3.80;;;;;;;25.46;100.00;152442.63;5092718;28;20199;-62
2022/09/07 09:29:42;;;;;;;3.63;3.42;;;;;;;25.12;100.00;152356.97;5092565;28;20206;-62
2022/09/07 09:32:31;;;;;;;4.40;3.50;;;;;;;25.34;100.00;152413.19;5092846;28;20662;-61
2022/09/07 09:35:05;;;;;;;3.53;3.40;;;;;;;25.41;99.96;152431.13;5091846;28;20715;-61
2022/09/07 09:37:39;;;;;;;4.78;4.07;;;;;;;25.71;100.00;152506.56;5092606;28;20287;-62
2022/09/07 09:40:17;;;;;;;3.50;3.20;;;;;;;25.13;100.00;152359.53;5092732;28;20187;-61
2022/09/07 09:42:44;;;;;;;3.92;3.72;;;;;;;25.16;100.00;152367.22;5092286;28;20180;-61
2022/09/07 09:45:19;;;;;;;8.43;3.60;;;;;;;25.10;100.00;152351.88;5093072;28;20190;-63
2022/09/07 09:47:49;;;;;;;3.58;3.38;;;;;;;25.14;100.00;152362.09;5092847;28;20194;-63
2022/09/07 09:50:21;;;;;;;4.00;3.85;;;;;;;25.46;100.00;152442.63;5092539;28;20562;-64
2022/09/07 09:52:49;;;;;;;3.40;3.13;;;;;;;25.15;100.00;152364.66;5092275;28;20204;-63
2022/09/07 09:55:26;;;;;;;3.70;3.45;;;;;;;25.54;100.00;152461.81;5092143;28;20203;-64
2022/09/07 09:57:57;;;;;;;3.50;3.20;;;;;;;25.55;98.63;152465.63;5092457;28;20187;-64
2022/09/07 10:00:27;;;;;;;3.28;3.08;;;;;;;25.45;100.00;152441.34;5092041;28;20264;-63
2022/09/07 10:03:06;;;;;;;3.90;3.70;;;;;;;25.28;100.00;152396.59;5092247;28;20221;-63
2022/09/07 10:05:37;;;;;;;4.20;3.35;;;;;;;25.66;100.00;152492.50;5092010;28;20657;-64
2022/09/07 10:08:16;;;;;;;3.45;3.25;;;;;;;25.99;96.87;152576.84;5091924;28;20184;-64
2022/09/07 10:11:01;;;;;;;3.72;3.47;;;;;;;26.34;93.96;152666.41;5091469;28;20190;-63
2022/09/07 10:13:30;;;;;;;4.20;3.85;;;;;;;26.41;95.07;152681.72;5089546;28;20708;-63
2022/09/07 10:16:01;;;;;;;3.65;3.47;;;;;;;26.52;93.03;152709.88;5091619;28;20191;-62
2022/09/07 10:18:33;;;;;;;3.65;3.25;;;;;;;26.71;90.37;152758.44;5092080;28;20257;-62
2022/09/07 10:21:25;;;;;;;2.88;2.78;;;;;;;26.54;92.90;152716.25;5092523;28;20562;-64
2022/09/07 10:23:58;;;;;;;3.38;3.17;;;;;;;27.00;95.23;152831.38;5091514;28;20184;-64
2022/09/07 10:26:29;;;;;;;5.88;3.90;;;;;;;27.60;91.95;152984.97;5090630;28;20652;-64
2022/09/07 10:29:08;;;;;;;3.05;2.88;;;;;;;27.48;93.73;152954.25;5091707;28;20216;-63
2022/09/07 10:31:46;;;;;;;3.47;3.35;;;;;;;27.28;94.13;152903.03;5091657;28;20535;-63
2022/09/07 10:34:22;;;;;;;3.28;3.08;;;;;;;26.94;92.43;152816.06;5091052;28;20674;-63
2022/09/07 10:36:56;;;;;;;3.60;3.50;;;;;;;27.29;92.48;152905.56;5091568;28;20191;-63
2022/09/07 10:39:26;;;;;;;3.58;3.38;;;;;;;27.33;88.08;152914.56;5088932;28;20642;-63
2022/09/07 10:42:05;;;;;;;3.75;3.55;;;;;;;27.17;91.12;152876.16;5071428;28;20204;-61
2022/09/07 10:44:49;;;;;;;3.40;3.30;;;;;;;27.14;90.57;152868.50;5071157;28;20191;-62
2022/09/07 10:47:28;;;;;;;3.65;3.45;;;;;;;27.16;91.07;152873.59;5074741;28;20184;-61
2022/09/07 10:50:00;;;;;;;3.45;3.35;;;;;;;27.19;90.56;152880.00;5075847;28;20532;-61
2022/09/07 10:52:35;;;;;;;3.40;3.30;;;;;;;27.64;88.59;152993.91;5076066;28;20204;-61
2022/09/07 10:55:11;;;;;;;3.90;3.60;;;;;;;27.81;86.78;153036.13;5095658;28;20198;-61
2022/09/07 10:57:51;;;;;;;3.40;3.17;;;;;;;27.57;85.59;152977.28;5095801;28;20190;-61
2022/09/07 11:00:20;;;;;;;4.05;3.83;;;;;;;27.10;91.79;152856.97;5093445;28;20229;-62
2022/09/07 11:03:00;;;;;;;3.88;3.70;;;;;;;26.42;97.56;152684.28;5095636;28;20200;-61
2022/09/07 11:05:34;;;;;;;6.63;3.92;;;;;;;26.11;99.87;152606.22;5095532;28;20190;-61
2022/09/07 11:08:16;;;;;;;3.88;3.58;;;;;;;25.47;100.00;152446.41;5095298;28;20194;-61
2022/09/07 11:10:52;;;;;;;3.72;3.50;;;;;;;24.93;100.00;152309.72;5094772;28;20616;-61
2022/09/07 11:13:25;;;;;;;3.90;3.75;;;;;;;24.35;100.00;152161.53;5095469;28;20203;-61
2022/09/07 11:15:57;;;;;;;4.72;4.55;;;;;;;24.29;100.00;152146.19;5094501;28;20574;-61
2022/09/07 11:18:30;;;;;;;4.07;3.85;;;;;;;24.28;100.00;152144.91;5095127;28;20562;-61
2022/09/07 11:21:02;;;;;;;9.98;4.25;;;;;;;24.06;100.00;152088.72;5092403;28;20631;-61
2022/09/07 11:23:37;;;;;;;5.63;4.50;;;;;;;24.07;100.00;152092.53;5094255;28;20237;-61
2022/09/07 11:26:10;;;;;;;4.07;3.90;;;;;;;24.05;100.00;152087.44;5093368;28;20561;-62
2022/09/07 11:28:45;;;;;;;4.78;4.32;;;;;;;24.14;100.00;152110.38;5094899;28;20215;-61
2022/09/07 11:31:21;;;;;;;8.48;4.60;;;;;;;24.24;100.00;152133.44;5094875;28;20569;-62
2022/09/07 11:34:00;;;;;;;4.40;4.10;;;;;;;23.95;100.00;152060.63;5094789;28;20207;-61